createdAt,value
2023-01-12T00:00:46.405Z,25.15
2023-01-12T00:03:16.149Z,25.12
2023-01-12T00:05:46.291Z,25.11
2023-01-12T00:08:16.226Z,25.10
2023-01-12T00:10:46.218Z,25.11
2023-01-12T00:13:16.005Z,25.08
2023-01-12T00:16:05.579Z,25.08
2023-01-12T00:18:39.647Z,25.04
2023-01-12T00:21:10.967Z,25.01
2023-01-12T00:23:41.274Z,25.00
2023-01-12T00:26:13.624Z,24.94
2023-01-12T00:28:44.024Z,24.90
2023-01-12T00:31:15.732Z,24.91
2023-01-12T00:33:45.956Z,24.90
2023-01-12T00:36:19.206Z,24.90
2023-01-12T00:38:49.646Z,24.87
2023-01-12T00:41:39.844Z,24.81
2023-01-12T00:44:28.270Z,24.80
2023-01-12T00:46:58.932Z,24.81
2023-01-12T00:49:36.622Z,24.74
2023-01-12T00:52:18.260Z,24.76
2023-01-12T00:55:04.395Z,24.69
2023-01-12T00:57:34.654Z,24.67
2023-01-12T01:00:08.703Z,24.64
2023-01-12T01:02:47.459Z,24.56
2023-01-12T01:05:18.991Z,24.53
2023-01-12T01:07:49.262Z,24.55
2023-01-12T01:10:43.887Z,24.60
2023-01-12T01:13:14.777Z,24.53
2023-01-12T01:15:44.716Z,24.50
2023-01-12T01:18:18.953Z,24.52
2023-01-12T01:20:50.055Z,24.41
2023-01-12T01:23:21.615Z,24.36
2023-01-12T01:25:57.878Z,24.28
2023-01-12T01:28:28.181Z,24.20
2023-01-12T01:31:05.746Z,24.19
2023-01-12T01:33:36.407Z,24.15
2023-01-12T01:36:07.580Z,24.04
2023-01-12T01:38:41.268Z,24.02
2023-01-12T01:41:27.951Z,24.02
2023-01-12T01:44:07.148Z,23.96
2023-01-12T01:47:09.137Z,23.96
2023-01-12T01:58:31.967Z,23.92
2023-01-12T02:01:27.496Z,23.92
2023-01-12T02:07:26.592Z,23.84
2023-01-12T02:09:57.710Z,23.82
2023-01-12T02:16:33.408Z,23.84
2023-01-12T02:19:21.705Z,23.76
2023-01-12T02:26:18.307Z,23.81
2023-01-12T02:30:32.282Z,23.75
2023-01-12T02:33:59.092Z,23.69
2023-01-12T02:40:35.047Z,23.75
2023-01-12T02:43:36.224Z,23.72
2023-01-12T02:46:32.497Z,23.74
2023-01-12T02:49:13.415Z,23.72
2023-01-12T02:52:13.066Z,23.72
2023-01-12T02:55:11.902Z,23.74
2023-01-12T02:57:45.340Z,23.67
2023-01-12T03:01:01.861Z,23.71
2023-01-12T03:03:40.869Z,23.71
2023-01-12T03:06:11.396Z,23.67
2023-01-12T03:08:42.831Z,23.62
2023-01-12T03:12:32.636Z,23.69
2023-01-12T03:18:46.110Z,23.75
2023-01-12T03:24:51.862Z,23.64
2023-01-12T03:27:34.949Z,23.55
2023-01-12T03:33:09.251Z,23.47
2023-01-12T03:35:54.036Z,23.43
2023-01-12T03:39:08.314Z,23.43
2023-01-12T03:55:18.133Z,23.34
2023-01-12T03:57:56.917Z,23.30
2023-01-12T04:00:31.833Z,23.28
2023-01-12T04:03:13.003Z,23.33
2023-01-12T04:05:48.648Z,23.35
2023-01-12T04:08:19.164Z,23.31
2023-01-12T04:10:49.854Z,23.28
2023-01-12T04:13:32.291Z,23.33
2023-01-12T04:19:16.926Z,23.23
2023-01-12T04:25:05.177Z,23.14
2023-01-12T04:30:39.699Z,22.94
2023-01-12T04:33:10.498Z,22.97
2023-01-12T04:35:40.343Z,22.92
2023-01-12T04:38:11.209Z,22.94
2023-01-12T04:40:41.536Z,22.89
2023-01-12T04:43:13.869Z,22.80
2023-01-12T04:45:44.876Z,22.76
2023-01-12T04:48:17.508Z,22.72
2023-01-12T04:51:13.023Z,22.74
2023-01-12T04:53:43.040Z,22.63
2023-01-12T04:56:12.828Z,22.55
2023-01-12T04:58:43.581Z,22.53
2023-01-12T05:01:16.439Z,22.48
2023-01-12T05:03:46.930Z,22.46
2023-01-12T05:06:16.859Z,22.43
2023-01-12T05:09:04.927Z,22.32
2023-01-12T05:11:35.110Z,22.23
2023-01-12T05:14:05.640Z,22.22
2023-01-12T05:16:35.964Z,22.22
2023-01-12T05:19:05.935Z,22.21
2023-01-12T05:21:35.727Z,22.23
2023-01-12T05:24:05.822Z,22.23
2023-01-12T05:26:35.600Z,22.22
2023-01-12T05:29:05.690Z,22.23
2023-01-12T05:31:36.553Z,22.21
2023-01-12T05:34:06.605Z,22.19
2023-01-12T05:36:36.609Z,22.16
2023-01-12T05:39:06.954Z,22.13
2023-01-12T05:41:36.907Z,22.11
2023-01-12T05:44:06.802Z,22.05
2023-01-12T05:46:41.276Z,22.02
2023-01-12T05:49:12.173Z,22.01
2023-01-12T05:51:42.169Z,21.98
2023-01-12T05:54:11.964Z,21.98
2023-01-12T05:56:41.916Z,21.91
2023-01-12T05:59:13.955Z,21.91
2023-01-12T06:01:45.149Z,21.88
2023-01-12T06:04:15.221Z,21.82
2023-01-12T06:06:45.085Z,21.80
2023-01-12T06:09:14.995Z,21.80
2023-01-12T06:12:02.786Z,21.75
2023-01-12T06:14:36.629Z,21.78
2023-01-12T06:17:06.978Z,21.81
2023-01-12T06:19:37.027Z,21.80
2023-01-12T06:22:09.302Z,21.81
2023-01-12T06:24:39.248Z,21.82
2023-01-12T06:27:09.367Z,21.82
2023-01-12T06:29:39.303Z,21.84
2023-01-12T06:32:09.058Z,21.85
2023-01-12T06:34:39.621Z,21.85
2023-01-12T06:37:09.767Z,21.85
2023-01-12T06:39:39.743Z,21.77
2023-01-12T06:42:27.913Z,21.80
2023-01-12T06:45:02.553Z,21.81
2023-01-12T06:47:33.107Z,21.77
2023-01-12T06:50:03.180Z,21.71
2023-01-12T06:52:36.054Z,21.62
2023-01-12T06:55:06.948Z,21.51
2023-01-12T06:57:38.266Z,21.43
2023-01-12T07:00:09.792Z,21.43
2023-01-12T07:02:40.004Z,21.48
2023-01-12T07:05:10.459Z,21.58
2023-01-12T07:07:40.747Z,21.58
2023-01-12T07:10:12.202Z,21.54
2023-01-12T07:12:42.513Z,21.51
2023-01-12T07:15:18.519Z,21.48
2023-01-12T07:17:48.660Z,21.41
2023-01-12T07:20:18.823Z,21.36
2023-01-12T07:22:48.868Z,21.37
2023-01-12T07:25:19.035Z,21.36
2023-01-12T07:27:56.826Z,21.41
2023-01-12T07:30:28.533Z,21.47
2023-01-12T07:33:11.680Z,21.48
2023-01-12T07:35:42.975Z,21.47
2023-01-12T07:38:12.978Z,21.41
2023-01-12T07:40:43.147Z,21.41
2023-01-12T07:43:15.219Z,21.38
2023-01-12T07:45:45.298Z,21.31
2023-01-12T07:48:17.059Z,21.30
2023-01-12T07:50:47.193Z,21.11
2023-01-12T07:53:16.976Z,21.10
2023-01-12T07:55:46.975Z,21.11
2023-01-12T07:58:24.932Z,21.20
2023-01-12T08:00:54.872Z,21.14
2023-01-12T08:03:24.727Z,21.24
2023-01-12T08:05:56.907Z,21.24
2023-01-12T08:08:27.055Z,21.17
2023-01-12T08:10:56.833Z,21.11
2023-01-12T08:13:26.833Z,21.11
2023-01-12T08:15:57.835Z,21.09
2023-01-12T08:18:32.509Z,21.03
2023-01-12T08:21:07.437Z,20.97
2023-01-12T08:23:45.190Z,20.97
2023-01-12T08:26:20.299Z,20.93
2023-01-12T08:28:56.262Z,20.92
2023-01-12T08:31:27.812Z,20.95
2023-01-12T08:33:58.020Z,20.97
2023-01-12T08:36:29.850Z,21.13
2023-01-12T08:38:59.991Z,21.41
2023-01-12T08:41:35.390Z,21.48
2023-01-12T08:44:12.025Z,21.58
2023-01-12T08:46:53.120Z,21.46
2023-01-12T08:49:26.482Z,21.44
2023-01-12T08:51:57.050Z,21.43
2023-01-12T08:54:27.380Z,21.46
2023-01-12T08:56:57.158Z,21.48
2023-01-12T08:59:27.083Z,21.51
2023-01-12T09:02:00.272Z,21.55
2023-01-12T09:04:30.626Z,21.65
2023-01-12T09:07:00.729Z,21.68
2023-01-12T09:09:30.669Z,21.74
2023-01-12T09:12:00.584Z,21.84
2023-01-12T09:14:30.860Z,21.94
2023-01-12T09:17:00.704Z,22.05
2023-01-12T09:19:30.694Z,22.16
2023-01-12T09:22:00.716Z,22.22
2023-01-12T09:24:31.232Z,22.22
2023-01-12T09:27:01.300Z,22.26
2023-01-12T09:29:31.300Z,22.31
2023-01-12T09:32:01.131Z,22.42
2023-01-12T09:34:31.195Z,22.48
2023-01-12T09:37:02.849Z,22.62
2023-01-12T09:39:33.088Z,22.63
2023-01-12T09:42:20.974Z,22.56
2023-01-12T09:45:11.271Z,22.62
2023-01-12T09:47:53.887Z,22.72
2023-01-12T09:50:40.525Z,22.73
2023-01-12T09:53:37.371Z,22.77
2023-01-12T09:56:16.895Z,22.76
2023-01-12T09:59:12.903Z,22.84
2023-01-12T10:01:43.210Z,22.90
2023-01-12T10:04:13.773Z,22.99
2023-01-12T10:06:45.365Z,23.94
2023-01-12T10:09:21.951Z,27.85
2023-01-12T10:12:10.333Z,29.37
2023-01-12T10:14:49.572Z,30.31
2023-01-12T10:17:26.705Z,30.67
2023-01-12T10:20:18.320Z,30.85
2023-01-12T10:22:56.991Z,30.71
2023-01-12T10:25:49.993Z,30.55
2023-01-12T10:28:30.927Z,30.08
2023-01-12T10:31:01.965Z,29.36
2023-01-12T10:33:33.215Z,29.05
2023-01-12T10:36:26.596Z,28.57
2023-01-12T10:39:00.709Z,28.45
2023-01-12T10:41:35.868Z,28.45
2023-01-12T10:44:08.323Z,28.58
2023-01-12T10:46:38.375Z,28.40
2023-01-12T10:49:25.338Z,28.75
2023-01-12T10:52:04.359Z,28.87
2023-01-12T10:54:42.406Z,29.08
2023-01-12T10:57:23.216Z,29.08
2023-01-12T10:59:57.149Z,29.14
2023-01-12T11:02:30.055Z,29.45
2023-01-12T11:05:00.202Z,29.30
2023-01-12T11:07:30.931Z,29.23
2023-01-12T11:10:27.716Z,29.59
2023-01-12T11:13:06.762Z,30.10
2023-01-12T11:15:40.169Z,29.91
2023-01-12T11:18:47.030Z,30.13
2023-01-12T11:21:20.959Z,29.98
2023-01-12T11:24:26.340Z,29.96
2023-01-12T11:27:15.208Z,30.06
2023-01-12T11:29:59.847Z,30.24
2023-01-12T11:32:44.901Z,30.04
2023-01-12T11:35:36.287Z,29.93
2023-01-12T11:38:20.652Z,30.34
2023-01-12T11:40:50.710Z,30.45
2023-01-12T11:43:50.499Z,30.45
2023-01-12T11:46:24.009Z,30.67
2023-01-12T11:49:05.989Z,30.24
2023-01-12T11:51:36.334Z,30.14
2023-01-12T11:54:09.429Z,30.32
2023-01-12T11:57:09.874Z,30.52
2023-01-12T12:00:07.494Z,31.19
2023-01-12T12:03:12.004Z,31.19
2023-01-12T12:06:00.713Z,31.42
2023-01-12T12:09:03.588Z,31.51
2023-01-12T12:11:56.498Z,31.26
2023-01-12T12:14:50.403Z,30.32
2023-01-12T12:17:23.885Z,30.61
2023-01-12T12:20:05.716Z,30.76
2023-01-12T12:22:56.343Z,31.27
2023-01-12T12:25:42.114Z,30.95
2023-01-12T12:28:27.671Z,30.47
2023-01-12T12:31:22.655Z,30.23
2023-01-12T12:34:23.478Z,30.21
2023-01-12T12:37:09.175Z,30.07
2023-01-12T12:40:26.629Z,30.59
2023-01-12T12:43:57.828Z,30.96
2023-01-12T12:46:41.763Z,29.84
2023-01-12T12:49:17.058Z,30.28
2023-01-12T12:51:48.057Z,30.20
2023-01-12T12:54:20.892Z,30.04
2023-01-12T12:56:51.707Z,30.10
2023-01-12T12:59:33.965Z,30.85
2023-01-12T13:02:05.247Z,30.49
2023-01-12T13:04:47.997Z,31.20
2023-01-12T13:07:29.506Z,31.18
2023-01-12T13:10:19.013Z,30.42
2023-01-12T13:13:18.173Z,29.86
2023-01-12T13:15:51.229Z,29.74
2023-01-12T13:18:45.060Z,29.83
2023-01-12T13:21:36.786Z,30.67
2023-01-12T13:24:22.972Z,29.98
2023-01-12T13:26:58.548Z,29.60
2023-01-12T13:29:31.065Z,29.72
2023-01-12T13:32:36.840Z,30.03
2023-01-12T13:35:38.007Z,30.11
2023-01-12T13:38:27.981Z,30.01
2023-01-12T13:41:48.424Z,30.81
2023-01-12T13:44:42.798Z,31.49
2023-01-12T13:47:36.175Z,31.43
2023-01-12T13:50:19.406Z,31.00
2023-01-12T13:53:04.489Z,31.15
2023-01-12T13:55:39.586Z,31.15
2023-01-12T13:58:20.906Z,31.10
2023-01-12T14:01:05.665Z,30.29
2023-01-12T14:03:43.134Z,30.31
2023-01-12T14:06:45.127Z,31.19
2023-01-12T14:09:41.633Z,31.18
2023-01-12T14:12:51.997Z,31.08
2023-01-12T14:15:47.775Z,31.34
2023-01-12T14:18:24.496Z,32.01
2023-01-12T14:21:02.386Z,32.36
2023-01-12T14:23:37.391Z,32.54
2023-01-12T14:26:15.039Z,32.32
2023-01-12T14:28:50.261Z,32.51
2023-01-12T14:31:35.378Z,32.69
2023-01-12T14:34:09.836Z,32.64
2023-01-12T14:36:48.284Z,32.54
2023-01-12T14:39:24.322Z,32.69
2023-01-12T14:42:17.108Z,32.78
2023-01-12T14:45:16.492Z,33.27
2023-01-12T14:48:41.688Z,32.99
2023-01-12T14:54:41.349Z,32.69
2023-01-12T14:57:44.097Z,31.97
2023-01-12T15:00:35.813Z,32.28
2023-01-12T15:03:35.637Z,31.95
2023-01-12T15:06:17.466Z,31.93
2023-01-12T15:09:02.897Z,31.95
2023-01-12T15:11:45.682Z,31.53
2023-01-12T15:14:29.071Z,31.70
2023-01-12T15:17:20.762Z,31.51
2023-01-12T15:20:08.883Z,31.97
2023-01-12T15:22:57.640Z,32.64
2023-01-12T15:25:37.649Z,32.07
2023-01-12T15:28:09.462Z,32.45
2023-01-12T15:30:41.086Z,31.91
2023-01-12T15:33:11.830Z,32.56
2023-01-12T15:35:47.155Z,33.02
2023-01-12T15:38:18.143Z,33.19
2023-01-12T15:40:49.728Z,32.46
2023-01-12T15:43:20.267Z,32.35
2023-01-12T15:45:50.399Z,32.27
2023-01-12T15:48:22.327Z,32.07
2023-01-12T15:50:54.467Z,31.16
2023-01-12T15:53:29.385Z,30.88
2023-01-12T15:55:59.573Z,30.79
2023-01-12T15:58:31.719Z,31.49
2023-01-12T16:01:01.907Z,31.26
2023-01-12T16:04:00.551Z,30.79
2023-01-12T16:06:21.766Z,31.70
2023-01-12T16:08:51.534Z,31.59
2023-01-12T16:11:25.458Z,31.09
2023-01-12T16:13:56.979Z,31.33
2023-01-12T16:16:29.748Z,31.25
2023-01-12T16:19:01.200Z,31.74
2023-01-12T16:21:31.215Z,31.93
2023-01-12T16:24:02.853Z,32.29
2023-01-12T16:26:33.576Z,32.54
2023-01-12T16:29:03.558Z,32.39
2023-01-12T16:31:35.983Z,31.40
2023-01-12T16:34:07.804Z,30.95
2023-01-12T16:36:38.157Z,31.70
2023-01-12T16:39:09.709Z,31.78
2023-01-12T16:41:39.681Z,31.18
2023-01-12T16:44:12.629Z,31.10
2023-01-12T16:46:46.273Z,31.46
2023-01-12T16:49:16.557Z,31.64
2023-01-12T16:51:52.442Z,31.22
2023-01-12T16:55:25.867Z,31.34
2023-01-12T16:58:29.373Z,31.97
2023-01-12T17:01:01.252Z,31.69
2023-01-12T17:03:35.852Z,31.49
2023-01-12T17:06:19.096Z,31.43
2023-01-12T17:08:49.733Z,31.40
2023-01-12T17:11:22.038Z,31.46
2023-01-12T17:13:56.619Z,31.64
2023-01-12T17:16:29.800Z,32.04
2023-01-12T17:19:00.362Z,32.14
2023-01-12T17:21:31.656Z,31.66
2023-01-12T17:24:01.720Z,31.15
2023-01-12T17:26:31.876Z,31.23
2023-01-12T17:29:33.395Z,31.47
2023-01-12T17:32:07.096Z,31.29
2023-01-12T17:34:42.007Z,31.49
2023-01-12T17:37:12.785Z,31.26
2023-01-12T17:39:48.922Z,31.61
2023-01-12T17:42:38.149Z,31.37
2023-01-12T17:45:55.499Z,31.51
2023-01-12T17:51:31.507Z,31.64
2023-01-12T17:55:22.013Z,31.50
2023-01-12T17:57:29.138Z,31.23
2023-01-12T18:00:20.925Z,31.78
2023-01-12T18:02:55.111Z,31.59
2023-01-12T18:05:32.873Z,31.54
2023-01-12T18:08:03.104Z,31.87
2023-01-12T18:10:33.855Z,31.98
2023-01-12T18:13:07.661Z,31.60
2023-01-12T18:15:41.586Z,31.36
2023-01-12T18:18:12.058Z,31.46
2023-01-12T18:20:45.469Z,30.99
2023-01-12T18:23:31.933Z,30.75
2023-01-12T18:26:30.554Z,31.27
2023-01-12T18:29:23.409Z,30.83
2023-01-12T18:32:13.986Z,30.27
2023-01-12T18:34:52.504Z,29.94
2023-01-12T18:37:56.819Z,29.53
2023-01-12T18:40:35.904Z,29.11
2023-01-12T18:43:14.029Z,29.05
2023-01-12T18:45:48.303Z,28.99
2023-01-12T18:54:00.121Z,28.71
2023-01-12T18:56:33.599Z,28.58
2023-01-12T18:59:05.728Z,28.48
2023-01-12T19:01:36.806Z,28.50
2023-01-12T19:04:10.080Z,28.69
2023-01-12T19:06:47.635Z,28.74
2023-01-12T19:09:35.909Z,28.81
2023-01-12T19:12:13.256Z,28.76
2023-01-12T19:15:02.794Z,28.76
2023-01-12T19:17:34.367Z,28.65
2023-01-12T19:20:10.189Z,28.94
2023-01-12T19:22:58.224Z,28.84
2023-01-12T19:25:49.858Z,28.69
2023-01-12T19:28:38.105Z,28.64
2023-01-12T20:17:31.892Z,27.90
2023-01-12T20:20:02.475Z,27.97
2023-01-12T20:22:32.468Z,27.99
2023-01-12T20:25:18.362Z,27.94
2023-01-12T20:27:52.274Z,27.88
2023-01-12T20:30:37.391Z,27.90
2023-01-12T20:33:09.648Z,27.86
2023-01-12T20:35:44.756Z,27.79
2023-01-12T20:38:17.473Z,27.78
2023-01-12T20:40:47.977Z,27.82
2023-01-12T20:43:18.913Z,27.74
2023-01-12T20:45:50.536Z,27.43
2023-01-12T20:48:20.590Z,27.58
2023-01-12T20:50:51.067Z,27.62
2023-01-12T20:53:21.764Z,27.58
2023-01-12T20:55:53.089Z,27.24
2023-01-12T20:58:23.370Z,27.12
2023-01-12T21:00:54.195Z,26.99
2023-01-12T21:03:24.626Z,27.04
2023-01-12T21:05:56.995Z,26.98
2023-01-12T21:08:27.087Z,26.87
2023-01-12T21:10:57.123Z,26.68
2023-01-12T21:13:27.166Z,26.73
2023-01-12T21:16:04.733Z,26.83
2023-01-12T21:18:37.157Z,26.91
2023-01-12T21:21:07.982Z,26.83
2023-01-12T21:23:38.342Z,26.70
2023-01-12T21:26:09.802Z,26.65
2023-01-12T21:28:41.894Z,26.53
2023-01-12T21:31:14.184Z,26.43
2023-01-12T21:33:44.404Z,26.26
2023-01-12T21:36:15.308Z,26.17
2023-01-12T21:38:46.964Z,26.13
2023-01-12T21:41:18.956Z,26.05
2023-01-12T21:43:54.207Z,26.00
2023-01-12T21:46:24.679Z,25.97
2023-01-12T21:48:54.506Z,25.90
2023-01-12T21:51:24.542Z,25.88
2023-01-12T21:53:56.133Z,25.89
2023-01-12T21:56:27.057Z,25.99
2023-01-12T21:58:56.933Z,25.93
2023-01-12T22:01:27.062Z,25.88
2023-01-12T22:03:58.432Z,25.86
2023-01-12T22:06:28.571Z,25.82
2023-01-12T22:12:01.640Z,25.68
2023-01-12T22:14:31.791Z,25.53
2023-01-12T22:17:03.733Z,25.42
2023-01-12T22:19:33.891Z,25.39
2023-01-12T22:22:30.769Z,25.39
2023-01-12T22:45:13.487Z,24.97
2023-01-12T22:47:51.184Z,25.01
2023-01-12T22:50:26.007Z,24.97
2023-01-12T22:53:01.459Z,24.97
2023-01-12T22:55:31.481Z,24.92
2023-01-12T22:58:01.461Z,24.90
2023-01-12T23:00:31.421Z,24.91
2023-01-12T23:03:01.635Z,24.88
2023-01-12T23:05:36.954Z,25.00
2023-01-12T23:08:08.276Z,25.00
2023-01-12T23:10:38.433Z,24.95
2023-01-12T23:13:19.099Z,24.88
2023-01-12T23:15:53.854Z,24.83
2023-01-12T23:18:30.485Z,24.83
2023-01-12T23:21:12.255Z,24.84
2023-01-12T23:23:47.022Z,24.86
2023-01-12T23:26:33.572Z,24.74
2023-01-12T23:29:04.077Z,24.63
2023-01-12T23:31:35.236Z,24.63
2023-01-12T23:34:05.532Z,24.63
2023-01-12T23:36:36.981Z,24.67
2023-01-12T23:39:09.652Z,24.71
2023-01-12T23:41:40.623Z,24.81
2023-01-12T23:44:11.952Z,24.84
2023-01-12T23:46:44.698Z,24.70
2023-01-12T23:49:19.698Z,24.61
2023-01-12T23:51:51.943Z,24.57
2023-01-12T23:54:21.973Z,24.52
2023-01-12T23:56:56.457Z,24.61
2023-01-12T23:59:28.601Z,24.67
